NCAR-RAP Real-Time Weather Data

Output produced by METARs form (17 October 2018  15:36 UTC)
found at http://weather.rap.ucar.edu/surface/
 
RJTO 170700Z 06006KT 9999 FEW025 BKN/// 20/14 Q1010
RJTO 170600Z 03004KT 340V090 9999 FEW025 BKN/// 21/14 Q1010
RJTO 170500Z 04008KT 9999 FEW025 BKN/// 21/14 Q1009
RJTO 170400Z 04010KT 9999 FEW025 BKN/// 21/14 Q1009
RJTO 170300Z 06007KT 030V110 9999 FEW020 SCT110 BKN/// 21/14 Q1010
RJTO 170200Z 03010KT 9999 FEW015 SCT020 BKN110 21/15 Q1010
RJTO 170100Z 03011KT 9999 FEW015 SCT025 BKN110 20/15 Q1010
RJTO 170000Z 04007KT 010V070 9999 -SHRA FEW015 SCT020 BKN040 19/16 Q1010
RJTO 162300Z 03008KT 9999 -SHRA FEW015 SCT020 BKN100 19/15 Q1010
RJTO 160700Z 04008KT 9999 FEW020 SCT050 BKN180 20/14 Q1011
RJTO 160600Z 04007KT 9999 FEW020 BKN050 BKN/// 20/15 Q1011
RJTO 160500Z 03007KT 9999 FEW020 BKN050 BKN/// 21/15 Q1012
RJTO 160400Z 04006KT 360V070 9999 FEW020 SCT050 BKN180 21/15 Q1013
RJTO 160300Z 04010KT 9999 FEW020 BKN180 BKN/// 21/15 Q1013
RJTO 160200Z 05011KT 9999 FEW020 SCT140 BKN170 21/16 Q1013
RJTO 160100Z 04010KT 9999 FEW015 SCT020 BKN180 20/15 Q1014
RJTO 160000Z 04012KT 9999 FEW015 SCT020 BKN180 20/15 Q1015
RJTO 152300Z 03012KT 9999 FEW020 BKN180 20/15 Q1015
RJTO 150700Z 05005KT 9999 FEW015 SCT020 BKN080 19/16 Q1017
RJTO 150600Z 03007KT 9999 FEW015 SCT020 BKN080 20/16 Q1016
RJTO 150500Z 05008KT 9999 FEW015 BKN020 BKN100 20/16 Q1016
RJTO 150400Z 04007KT 9999 FEW020 BKN100 BKN/// 20/16 Q1017